Mount Roskill, New Zealand
Current Conditions -  °F | °C
As of 8:30 PM on Saturday 20 Dec 2014 (Local Time) from NZAA Reporting Station
Moderate Rain Moderate Rain  
Wind Chill: 68°   Ceiling: 3100
Heat Index: 68°   Visibility: 4mi
Dew Point: 66°   Wind: 7mph
Humidity: 94%   Direction: 340°NNW
Pressure: 29.88"   Gusts: NA
Location:  36.9°S, 174.74°E
Report Text: NZAA 200830Z AUTO 34006KT 6000 RA FEW016/// SCT024/// BKN031///20/19 Q1012 BECMG BKN012 TEMPO 9999 -RA
Loading
Personal Weather Stations






























Interactive Weather Map New forecast layout! Learn more

10-Day Weather Forecast

Advertisements
Track Severe Weather on mobile